createdAt,value
2022-09-06T00:00:28.737Z,5.47
2022-09-06T00:02:57.675Z,5.88
2022-09-06T00:05:25.328Z,5.05
2022-09-06T00:07:53.241Z,5.25
2022-09-06T00:10:21.239Z,5.43
2022-09-06T00:12:49.235Z,4.97
2022-09-06T00:15:17.366Z,5.55
2022-09-06T00:17:45.401Z,5.13
2022-09-06T00:20:13.266Z,5.10
2022-09-06T00:22:41.423Z,4.70
2022-09-06T00:25:09.761Z,5.38
2022-09-06T00:27:37.309Z,5.85
2022-09-06T00:30:05.536Z,5.10
2022-09-06T00:32:33.466Z,5.28
2022-09-06T00:35:01.331Z,6.65
2022-09-06T00:37:29.075Z,5.43
2022-09-06T00:39:56.787Z,5.28
2022-09-06T00:42:24.754Z,6.85
2022-09-06T00:44:52.573Z,5.85
2022-09-06T00:47:20.171Z,7.18
2022-09-06T00:49:52.856Z,5.45
2022-09-06T00:52:21.188Z,5.93
2022-09-06T00:54:51.103Z,6.13
2022-09-06T00:57:19.367Z,5.88
2022-09-06T00:59:48.183Z,6.32
2022-09-06T01:02:16.060Z,5.60
2022-09-06T01:04:45.436Z,5.88
2022-09-06T01:07:25.713Z,5.40
2022-09-06T01:10:15.475Z,5.53
2022-09-06T01:13:06.425Z,5.68
2022-09-06T01:16:12.414Z,5.65
2022-09-06T01:18:50.063Z,5.32
2022-09-06T01:21:28.690Z,5.32
2022-09-06T01:24:29.200Z,5.13
2022-09-06T01:27:06.507Z,5.38
2022-09-06T01:29:52.046Z,5.63
2022-09-06T01:32:55.432Z,6.00
2022-09-06T01:35:41.211Z,5.65
2022-09-06T01:38:09.500Z,5.50
2022-09-06T01:40:37.534Z,4.88
2022-09-06T01:43:11.068Z,5.47
2022-09-06T01:45:39.091Z,5.85
2022-09-06T01:48:19.672Z,5.07
2022-09-06T01:51:02.188Z,4.95
2022-09-06T01:53:47.269Z,5.55
2022-09-06T01:56:23.028Z,6.10
2022-09-06T01:58:50.854Z,5.85
2022-09-06T02:01:35.711Z,5.63
2022-09-06T02:04:27.605Z,5.90
2022-09-06T02:07:02.275Z,5.82
2022-09-06T02:09:38.452Z,5.47
2022-09-06T02:12:07.418Z,5.60
2022-09-06T02:15:11.720Z,5.55
2022-09-06T02:17:45.430Z,5.15
2022-09-06T02:20:20.834Z,5.53
2022-09-06T02:22:50.564Z,6.03
2022-09-06T02:25:30.192Z,5.25
2022-09-06T02:27:58.823Z,5.25
2022-09-06T02:30:26.744Z,5.88
2022-09-06T02:33:02.119Z,5.57
2022-09-06T02:35:30.273Z,6.10
2022-09-06T02:37:58.262Z,6.18
2022-09-06T02:40:26.224Z,6.35
2022-09-06T02:42:54.219Z,6.10
2022-09-06T02:45:21.964Z,6.60
2022-09-06T02:47:49.807Z,5.35
2022-09-06T02:50:17.598Z,5.90
2022-09-06T02:52:45.699Z,6.30
2022-09-06T02:55:13.443Z,6.20
2022-09-06T02:57:41.110Z,5.47
2022-09-06T03:00:09.539Z,6.15
2022-09-06T03:02:37.246Z,6.63
2022-09-06T03:05:06.273Z,5.75
2022-09-06T03:07:33.994Z,5.80
2022-09-06T03:10:01.651Z,6.55
2022-09-06T03:12:29.314Z,5.82
2022-09-06T03:14:57.276Z,6.30
2022-09-06T03:17:25.162Z,6.53
2022-09-06T03:19:53.525Z,6.10
2022-09-06T03:22:21.069Z,5.55
2022-09-06T03:24:49.921Z,5.93
2022-09-06T03:27:17.666Z,5.50
2022-09-06T03:29:45.620Z,5.35
2022-09-06T03:32:13.823Z,5.88
2022-09-06T03:34:41.523Z,6.05
2022-09-06T03:37:09.145Z,6.35
2022-09-06T03:39:36.978Z,6.30
2022-09-06T03:42:04.571Z,5.70
2022-09-06T03:44:32.396Z,6.13
2022-09-06T03:47:00.658Z,5.90
2022-09-06T03:49:28.408Z,5.82
2022-09-06T03:51:56.448Z,5.63
2022-09-06T03:54:24.874Z,6.38
2022-09-06T03:56:53.274Z,6.38
2022-09-06T03:59:21.252Z,6.97
2022-09-06T04:01:49.365Z,6.82
2022-09-06T04:04:17.749Z,7.13
2022-09-06T04:06:45.340Z,6.45
2022-09-06T04:09:13.169Z,6.47
2022-09-06T04:11:42.940Z,6.28
2022-09-06T04:14:12.703Z,6.75
2022-09-06T04:16:40.521Z,6.95
2022-09-06T04:19:08.302Z,6.32
2022-09-06T04:21:36.367Z,6.32
2022-09-06T04:24:04.209Z,7.00
2022-09-06T04:26:32.356Z,6.53
2022-09-06T04:28:59.993Z,7.20
2022-09-06T04:31:27.892Z,7.50
2022-09-06T04:33:55.706Z,8.10
2022-09-06T04:36:23.456Z,8.77
2022-09-06T04:38:51.182Z,8.85
2022-09-06T04:41:19.088Z,8.38
2022-09-06T04:43:46.738Z,8.52
2022-09-06T04:46:20.241Z,9.50
2022-09-06T04:48:48.919Z,9.20
2022-09-06T04:51:17.036Z,9.77
2022-09-06T04:53:45.580Z,8.77
2022-09-06T04:56:19.228Z,8.98
2022-09-06T04:58:48.500Z,9.50
2022-09-06T05:01:17.053Z,9.02
2022-09-06T05:03:44.900Z,9.18
2022-09-06T05:06:18.501Z,8.13
2022-09-06T05:08:46.533Z,9.75
2022-09-06T05:11:14.136Z,9.55
2022-09-06T05:13:42.491Z,9.32
2022-09-06T05:16:10.840Z,10.55
2022-09-06T05:18:38.714Z,9.93
2022-09-06T05:21:07.812Z,9.98
2022-09-06T05:23:35.538Z,10.63
2022-09-06T05:26:04.166Z,10.35
2022-09-06T05:28:31.873Z,9.43
2022-09-06T05:31:07.157Z,9.82
2022-09-06T05:33:35.897Z,9.32
2022-09-06T05:36:05.029Z,9.77
2022-09-06T05:38:33.037Z,10.15
2022-09-06T05:41:01.203Z,10.07
2022-09-06T05:43:28.954Z,9.77
2022-09-06T05:45:56.581Z,11.35
2022-09-06T05:48:24.236Z,10.07
2022-09-06T05:51:10.174Z,10.00
2022-09-06T05:53:40.377Z,9.50
2022-09-06T05:58:35.978Z,9.65
2022-09-06T06:01:14.798Z,10.45
2022-09-06T06:03:43.741Z,10.05
2022-09-06T06:06:11.932Z,9.93
2022-09-06T06:08:40.323Z,10.00
2022-09-06T06:11:07.999Z,9.80
2022-09-06T06:13:39.609Z,9.90
2022-09-06T06:16:08.689Z,8.57
2022-09-06T06:18:36.737Z,9.07
2022-09-06T06:21:22.706Z,8.85
2022-09-06T06:23:53.459Z,8.82
2022-09-06T06:26:22.074Z,8.20
2022-09-06T06:28:49.914Z,8.10
2022-09-06T06:31:18.129Z,8.20
2022-09-06T06:33:46.385Z,8.07
2022-09-06T06:36:14.182Z,8.20
2022-09-06T06:38:43.896Z,8.77
2022-09-06T06:41:14.108Z,7.75
2022-09-06T06:43:41.893Z,6.20
2022-09-06T06:46:17.554Z,7.07
2022-09-06T06:48:47.954Z,6.72
2022-09-06T06:51:19.658Z,8.55
2022-09-06T06:53:49.061Z,7.90
2022-09-06T06:56:26.406Z,7.25
2022-09-06T06:58:57.821Z,6.50
2022-09-06T07:01:27.065Z,6.82
2022-09-06T07:03:55.161Z,6.60
2022-09-06T07:09:11.485Z,6.18
2022-09-06T07:11:39.094Z,6.10
2022-09-06T07:14:06.824Z,5.93
2022-09-06T07:16:34.894Z,6.72
2022-09-06T07:19:03.125Z,5.90
2022-09-06T07:21:38.381Z,6.28
2022-09-06T07:24:10.055Z,5.15
2022-09-06T07:26:40.183Z,4.88
2022-09-06T07:29:08.326Z,5.55
2022-09-06T07:34:25.962Z,4.13
2022-09-06T07:36:55.095Z,3.80
2022-09-06T07:39:23.666Z,3.90
2022-09-06T07:41:51.624Z,4.03
2022-09-06T07:44:19.187Z,3.95
2022-09-06T07:46:47.156Z,3.72
2022-09-06T07:49:14.912Z,3.92
2022-09-06T07:51:42.699Z,3.10
2022-09-06T07:54:30.118Z,2.92
2022-09-06T07:56:58.711Z,4.18
2022-09-06T07:59:27.709Z,3.50
2022-09-06T08:01:55.411Z,3.05
2022-09-06T08:04:23.316Z,2.80
2022-09-06T08:09:39.853Z,3.05
2022-09-06T08:12:08.274Z,3.30
2022-09-06T08:14:35.868Z,2.65
2022-09-06T08:17:04.701Z,2.90
2022-09-06T08:19:32.421Z,2.90
2022-09-06T08:21:59.978Z,3.28
2022-09-06T08:24:27.655Z,2.60
2022-09-06T08:26:55.297Z,2.70
2022-09-06T08:29:22.875Z,3.00
2022-09-06T08:31:51.155Z,2.67
2022-09-06T08:34:18.764Z,2.33
2022-09-06T08:36:46.466Z,2.00
2022-09-06T08:39:14.188Z,2.47
2022-09-06T08:41:48.591Z,2.63
2022-09-06T08:47:19.293Z,2.42
2022-09-06T08:50:06.792Z,2.45
2022-09-06T08:52:45.255Z,2.58
2022-09-06T08:55:25.471Z,1.80
2022-09-06T08:58:31.013Z,1.98
2022-09-06T09:01:03.472Z,1.90
2022-09-06T09:03:37.631Z,2.50
2022-09-06T09:06:10.225Z,1.67
2022-09-06T09:08:40.898Z,2.05
2022-09-06T09:11:17.787Z,2.13
2022-09-06T09:13:55.798Z,2.35
2022-09-06T09:16:23.949Z,2.20
2022-09-06T09:18:57.886Z,2.83
2022-09-06T09:21:30.365Z,1.58
2022-09-06T09:24:03.826Z,2.50
2022-09-06T09:26:54.403Z,2.00
2022-09-06T09:29:27.471Z,2.17
2022-09-06T09:31:57.021Z,2.72
2022-09-06T09:34:29.732Z,2.63
2022-09-06T09:37:46.012Z,2.22
2022-09-06T09:40:26.503Z,2.22
2022-09-06T09:42:56.928Z,1.98
2022-09-06T09:45:29.200Z,2.28
2022-09-06T09:47:57.510Z,2.38
2022-09-06T09:50:32.791Z,3.00
2022-09-06T09:53:12.036Z,2.20
2022-09-06T09:55:41.607Z,1.77
2022-09-06T09:58:35.408Z,2.30
2022-09-06T10:01:23.017Z,2.72
2022-09-06T10:09:35.354Z,1.92
2022-09-06T10:12:03.449Z,2.47
2022-09-06T10:14:33.420Z,2.22
2022-09-06T10:17:02.040Z,1.67
2022-09-06T10:19:35.614Z,2.47
2022-09-06T10:22:26.813Z,1.98
2022-09-06T10:25:18.602Z,1.98
2022-09-06T10:28:11.824Z,2.22
2022-09-06T10:30:53.734Z,2.15
2022-09-06T10:33:52.195Z,1.98
2022-09-06T10:36:25.419Z,2.40
2022-09-06T10:39:20.042Z,2.03
2022-09-06T10:42:40.192Z,2.30
2022-09-06T10:45:26.965Z,1.75
2022-09-06T10:48:21.074Z,1.67
2022-09-06T10:51:07.796Z,1.52
2022-09-06T10:54:13.775Z,1.80
2022-09-06T11:00:03.903Z,1.48
2022-09-06T11:02:40.705Z,2.05
2022-09-06T11:08:46.997Z,1.50
2022-09-06T11:11:35.584Z,1.83
2022-09-06T11:14:13.330Z,1.95
2022-09-06T11:17:07.434Z,1.90
2022-09-06T11:20:05.829Z,1.60
2022-09-06T11:22:45.595Z,1.42
2022-09-06T11:25:29.009Z,2.15
2022-09-06T11:27:59.506Z,2.30
2022-09-06T11:30:30.511Z,1.70
2022-09-06T11:33:39.823Z,1.88
2022-09-06T11:36:36.009Z,1.80
2022-09-06T11:39:07.747Z,1.92
2022-09-06T11:41:43.533Z,1.80
2022-09-06T11:44:12.645Z,1.88
2022-09-06T11:46:58.743Z,2.10
2022-09-06T11:49:33.164Z,1.60
2022-09-06T11:52:01.656Z,1.90
2022-09-06T11:54:44.624Z,1.65
2022-09-06T11:57:16.653Z,2.25
2022-09-06T11:59:47.943Z,2.00
2022-09-06T12:02:40.994Z,1.65
2022-09-06T12:05:18.192Z,2.25
2022-09-06T12:08:12.435Z,1.35
2022-09-06T12:11:03.562Z,2.38
2022-09-06T12:13:46.887Z,1.27
2022-09-06T12:16:16.740Z,1.60
2022-09-06T12:18:50.520Z,1.83
2022-09-06T12:21:47.497Z,2.05
2022-09-06T12:24:33.879Z,1.90
2022-09-06T12:27:18.893Z,2.05
2022-09-06T12:29:55.134Z,2.22
2022-09-06T12:38:03.918Z,1.80
2022-09-06T12:40:35.571Z,1.42
2022-09-06T12:43:05.809Z,1.80
2022-09-06T12:45:33.693Z,1.60
2022-09-06T12:48:11.613Z,2.13
2022-09-06T12:50:40.703Z,2.15
2022-09-06T12:53:25.178Z,1.90
2022-09-06T12:56:05.506Z,1.63
2022-09-06T12:58:34.146Z,1.52
2022-09-06T13:01:26.153Z,1.77
2022-09-06T13:04:16.589Z,1.55
2022-09-06T13:06:46.315Z,2.17
2022-09-06T13:09:18.579Z,1.60
2022-09-06T13:11:52.510Z,1.30
2022-09-06T13:14:30.211Z,1.88
2022-09-06T13:16:58.146Z,1.92
2022-09-06T13:19:33.878Z,1.27
2022-09-06T13:22:04.040Z,1.67
2022-09-06T13:24:35.495Z,1.60
2022-09-06T13:27:31.066Z,1.42
2022-09-06T13:30:05.799Z,1.10
2022-09-06T13:32:35.332Z,1.33
2022-09-06T13:35:04.450Z,1.80
2022-09-06T13:37:35.584Z,1.55
2022-09-06T13:41:09.014Z,1.70
2022-09-06T13:43:33.843Z,1.70
2022-09-06T13:46:09.297Z,1.67
2022-09-06T13:48:39.498Z,1.65
2022-09-06T13:51:09.004Z,2.03
2022-09-06T13:53:36.715Z,1.40
2022-09-06T13:56:08.780Z,1.70
2022-09-06T13:58:37.023Z,1.48
2022-09-06T14:01:08.841Z,1.52
2022-09-06T14:03:40.216Z,1.23
2022-09-06T14:06:08.684Z,1.35
2022-09-06T14:08:56.212Z,1.63
2022-09-06T14:11:25.414Z,1.30
2022-09-06T14:13:53.162Z,1.40
2022-09-06T14:16:21.258Z,1.20
2022-09-06T14:18:48.912Z,1.40
2022-09-06T14:21:16.677Z,1.02
2022-09-06T14:23:51.030Z,0.98
2022-09-06T14:26:21.033Z,1.45
2022-09-06T14:28:48.824Z,1.00
2022-09-06T14:31:19.446Z,1.00
2022-09-06T14:33:47.603Z,1.40
2022-09-06T14:36:18.837Z,1.50
2022-09-06T14:38:47.291Z,1.65
2022-09-06T14:41:16.590Z,1.00
2022-09-06T14:43:47.674Z,1.42
2022-09-06T14:46:16.299Z,2.05
2022-09-06T14:48:44.438Z,1.65
2022-09-06T14:51:17.908Z,1.92
2022-09-06T14:53:46.130Z,1.27
2022-09-06T14:56:14.119Z,1.52
2022-09-06T14:58:42.687Z,1.70
2022-09-06T15:01:35.721Z,1.67
2022-09-06T15:04:08.089Z,2.17
2022-09-06T15:06:39.116Z,3.88
2022-09-06T15:09:07.978Z,1.67
2022-09-06T15:11:40.042Z,1.83
2022-09-06T15:14:17.059Z,3.10
2022-09-06T15:16:46.103Z,1.88
2022-09-06T15:19:14.564Z,2.42
2022-09-06T15:21:42.694Z,1.95
2022-09-06T15:24:12.227Z,5.00
2022-09-06T15:26:41.284Z,2.40
2022-09-06T15:29:13.007Z,1.65
2022-09-06T15:31:42.101Z,1.60
2022-09-06T15:34:10.613Z,1.73
2022-09-06T15:36:38.445Z,2.20
2022-09-06T15:39:06.562Z,1.85
2022-09-06T15:41:36.719Z,1.30
2022-09-06T15:44:16.150Z,2.50
2022-09-06T15:46:49.973Z,1.73
2022-09-06T15:49:27.041Z,2.17
2022-09-06T15:52:00.873Z,1.95
2022-09-06T15:54:47.797Z,1.98
2022-09-06T15:57:16.950Z,2.20
2022-09-06T15:59:45.276Z,2.40
2022-09-06T16:02:13.783Z,2.72
2022-09-06T16:04:41.567Z,2.30
2022-09-06T16:07:10.017Z,2.15
2022-09-06T16:09:37.935Z,2.38
2022-09-06T16:12:05.813Z,1.88
2022-09-06T16:14:34.910Z,1.85
2022-09-06T16:17:02.547Z,2.38
2022-09-06T16:19:30.159Z,2.97
2022-09-06T16:21:58.971Z,3.28
2022-09-06T16:24:26.985Z,2.78
2022-09-06T16:26:54.565Z,2.47
2022-09-06T16:29:22.295Z,2.67
2022-09-06T16:31:50.635Z,2.53
2022-09-06T16:34:18.379Z,1.67
2022-09-06T16:36:45.824Z,2.38
2022-09-06T16:39:13.540Z,1.95
2022-09-06T16:41:43.855Z,1.60
2022-09-06T16:44:16.346Z,1.73
2022-09-06T16:46:49.911Z,3.00
2022-09-06T16:49:19.187Z,2.78
2022-09-06T16:51:48.489Z,1.63
2022-09-06T16:54:17.238Z,2.45
2022-09-06T16:56:45.202Z,1.27
2022-09-06T16:59:15.233Z,1.75
2022-09-06T17:01:43.526Z,1.25
2022-09-06T17:04:12.794Z,1.65
2022-09-06T17:06:47.136Z,1.60
2022-09-06T17:09:18.825Z,1.52
2022-09-06T17:11:49.946Z,1.50
2022-09-06T17:14:18.214Z,1.50
2022-09-06T17:17:04.557Z,1.38
2022-09-06T17:19:41.251Z,1.42
2022-09-06T17:22:10.420Z,1.50
2022-09-06T17:24:39.291Z,1.20
2022-09-06T17:27:08.134Z,1.48
2022-09-06T17:29:36.059Z,1.15
2022-09-06T17:32:05.321Z,1.77
2022-09-06T17:34:33.042Z,0.85
2022-09-06T17:37:00.656Z,1.27
2022-09-06T17:39:28.383Z,1.40
2022-09-06T17:41:56.099Z,1.63
2022-09-06T17:44:25.958Z,1.38
2022-09-06T17:47:11.932Z,1.20
2022-09-06T17:49:40.572Z,1.55
2022-09-06T17:52:08.228Z,1.90
2022-09-06T17:54:35.868Z,1.80
2022-09-06T17:57:03.507Z,2.25
2022-09-06T17:59:35.133Z,1.95
2022-09-06T18:02:04.848Z,2.05
2022-09-06T18:04:32.516Z,1.38
2022-09-06T18:07:00.477Z,1.83
2022-09-06T18:09:28.385Z,1.88
2022-09-06T18:11:56.999Z,1.33
2022-09-06T18:14:24.551Z,1.85
2022-09-06T18:16:52.566Z,2.28
2022-09-06T18:19:22.056Z,2.80
2022-09-06T18:21:49.691Z,2.70
2022-09-06T18:24:17.624Z,2.28
2022-09-06T18:26:45.375Z,2.20
2022-09-06T18:29:16.645Z,2.00
2022-09-06T18:31:44.739Z,2.25
2022-09-06T18:34:12.723Z,1.50
2022-09-06T18:36:40.720Z,1.95
2022-09-06T18:39:08.723Z,1.65
2022-09-06T18:41:54.613Z,1.52
2022-09-06T18:44:22.469Z,1.98
2022-09-06T18:46:50.297Z,1.60
2022-09-06T18:49:18.497Z,2.28
2022-09-06T18:51:46.417Z,2.17
2022-09-06T18:54:14.676Z,2.40
2022-09-06T18:56:44.871Z,2.10
2022-09-06T18:59:13.896Z,1.80
2022-09-06T19:01:43.113Z,1.63
2022-09-06T19:04:11.727Z,1.70
2022-09-06T19:06:41.926Z,1.92
2022-09-06T19:09:13.226Z,2.03
2022-09-06T19:11:45.862Z,1.98
2022-09-06T19:14:14.173Z,2.08
2022-09-06T19:16:42.260Z,2.08
2022-09-06T19:19:11.910Z,2.13
2022-09-06T19:21:42.407Z,2.05
2022-09-06T19:24:12.100Z,1.80
2022-09-06T19:26:41.965Z,1.95
2022-09-06T19:29:14.628Z,1.85
2022-09-06T19:31:43.768Z,1.75
2022-09-06T19:34:13.589Z,2.35
2022-09-06T19:36:41.740Z,2.03
2022-09-06T19:39:14.263Z,2.03
2022-09-06T19:41:45.091Z,2.47
2022-09-06T19:44:14.257Z,2.28
2022-09-06T19:46:45.728Z,1.70
2022-09-06T19:49:17.104Z,1.98
2022-09-06T19:51:46.932Z,2.53
2022-09-06T19:54:15.744Z,2.72
2022-09-06T19:56:44.546Z,2.08
2022-09-06T19:59:14.439Z,2.17
2022-09-06T20:04:13.463Z,2.08
2022-09-06T20:06:41.156Z,1.83
2022-09-06T20:09:10.562Z,2.40
2022-09-06T20:11:40.039Z,2.17
2022-09-06T20:14:08.888Z,1.95
2022-09-06T20:16:41.398Z,1.85
2022-09-06T20:19:10.666Z,2.05
2022-09-06T20:21:38.487Z,2.38
2022-09-06T20:24:06.330Z,1.63
2022-09-06T20:26:34.004Z,1.70
2022-09-06T20:29:03.437Z,1.88
2022-09-06T20:31:32.269Z,1.48
2022-09-06T20:34:01.818Z,1.35
2022-09-06T20:36:30.312Z,2.30
2022-09-06T20:38:58.007Z,1.52
2022-09-06T20:41:26.853Z,2.20
2022-09-06T20:43:56.758Z,2.88
2022-09-06T20:46:36.172Z,1.90
2022-09-06T20:49:04.885Z,1.50
2022-09-06T20:51:34.428Z,1.20
2022-09-06T20:54:04.273Z,1.52
2022-09-06T20:56:34.420Z,1.13
2022-09-06T21:01:34.902Z,1.10
2022-09-06T21:04:06.489Z,1.40
2022-09-06T21:06:36.293Z,1.98
2022-09-06T21:09:12.102Z,1.50
2022-09-06T21:11:40.591Z,1.52
2022-09-06T21:14:09.323Z,1.17
2022-09-06T21:16:38.485Z,0.88
2022-09-06T21:19:09.051Z,0.88
2022-09-06T21:21:37.773Z,1.70
2022-09-06T21:24:07.179Z,1.52
2022-09-06T21:26:35.709Z,2.05
2022-09-06T21:29:04.110Z,1.98
2022-09-06T21:31:33.524Z,1.42
2022-09-06T21:34:06.830Z,1.30
2022-09-06T21:36:37.275Z,1.08
2022-09-06T21:39:09.667Z,1.60
2022-09-06T21:41:39.123Z,1.38
2022-09-06T21:44:08.054Z,1.45
2022-09-06T21:46:38.154Z,2.42
2022-09-06T21:49:08.776Z,2.05
2022-09-06T21:51:36.615Z,1.30
2022-09-06T21:54:06.051Z,1.35
2022-09-06T21:56:36.129Z,1.60
2022-09-06T22:01:34.808Z,1.27
2022-09-06T22:04:02.938Z,1.10
2022-09-06T22:06:32.185Z,0.80
2022-09-06T22:09:02.237Z,1.33
2022-09-06T22:11:32.487Z,1.60
2022-09-06T22:14:06.870Z,1.10
2022-09-06T22:16:37.267Z,1.58
2022-09-06T22:19:06.762Z,1.58
2022-09-06T22:21:35.219Z,1.27
2022-09-06T22:24:05.585Z,1.00
2022-09-06T22:26:36.698Z,1.08
2022-09-06T22:29:07.818Z,0.93
2022-09-06T22:31:36.478Z,1.42
2022-09-06T22:34:04.868Z,1.00
2022-09-06T22:36:32.759Z,1.45
2022-09-06T22:39:00.307Z,1.05
2022-09-06T22:41:30.680Z,1.30
2022-09-06T22:44:00.645Z,1.40
2022-09-06T22:46:28.937Z,1.95
2022-09-06T22:48:57.195Z,1.23
2022-09-06T22:51:24.983Z,1.08
2022-09-06T22:53:52.769Z,1.13
2022-09-06T22:56:21.214Z,1.48
2022-09-06T22:58:49.060Z,1.25
2022-09-06T23:01:17.612Z,0.73
2022-09-06T23:03:57.249Z,1.60
2022-09-06T23:14:30.416Z,1.38
2022-09-06T23:16:58.170Z,1.52
2022-09-06T23:19:25.945Z,1.35
2022-09-06T23:21:53.481Z,1.30
2022-09-06T23:24:21.027Z,1.10
2022-09-06T23:26:48.855Z,1.13
2022-09-06T23:29:16.547Z,1.00
2022-09-06T23:31:44.299Z,2.10
2022-09-06T23:34:12.238Z,1.20
2022-09-06T23:36:40.490Z,0.98
2022-09-06T23:39:09.261Z,1.52
2022-09-06T23:41:37.085Z,1.92
2022-09-06T23:44:04.670Z,1.63
2022-09-06T23:46:32.300Z,1.20
2022-09-06T23:49:00.164Z,1.20
2022-09-06T23:51:27.911Z,1.67
2022-09-06T23:53:55.671Z,1.63
2022-09-06T23:56:23.403Z,1.73
2022-09-06T23:58:51.111Z,1.13
